Latest Weather Observations for Macquarie Island*

IDT60801

Issued at 3:31 pm EST Monday 27 April 2015 (issued every 30 minutes, with the page automatically refreshed every 10 minutes)

About weather observations | Map of weather stations | Latest weather observations for ANT | Other Formats
Station Details ID: 300004 Name: MACQUARIE ISLAND Lat: -54.50 Lon: 158.94 Height: 6.0 m
Data from the previous 72 hours. | See also: Recent months at Macquarie Island*
Date/Time
EST
Temp
°C
App
Temp
°C
Dew
Point
Rel
Hum
%
Delta-T
°C
Wind Press
QNH
hPa
Press
MSL
hPa
Rain
since 9 am
mm
Dir
 
Spd
km/h
Gust
km/h
Spd
kts
Gust
kts
27/03:30pm 2.7 -7.7 -0.2 81 1.1 W 44 78 24 42 990.7 - 1.0
27/03:00pm 2.1 -5.6 -0.2 85 0.9 W 30 67 16 36 990.5 990.8 1.0
27/02:51pm 2.2 -6.1 -0.4 83 0.9 W 33 54 18 29 990.9 - 1.0
27/02:48pm 2.3 -6.0 -0.6 81 1.1 SW 33 46 18 25 990.8 - 1.0
27/02:42pm 3.2 -7.2 -0.1 79 1.2 W 44 74 24 40 990.4 - 1.0
27/02:30pm 2.8 -6.2 0.4 84 0.9 W 37 52 20 28 990.4 - 1.0
27/02:05pm 1.6 -10.0 -0.6 85 0.8 W 50 69 27 37 990.7 - 1.0
27/02:00pm 1.5 -11.2 -0.6 86 0.8 W 56 69 30 37 990.8 - 0.8
27/01:57pm 1.8 -11.1 -0.3 86 0.8 W 57 69 31 37 990.8 - 0.8
27/01:52pm 3.0 -6.3 0.9 86 0.8 WNW 39 61 21 33 990.5 - 0.4
27/01:30pm 3.1 -6.9 1.3 88 0.7 W 43 54 23 29 990.6 - 0.4
27/01:20pm 3.7 -5.6 0.6 80 1.2 W 39 57 21 31 990.6 - 0.4
27/01:00pm 4.5 -4.1 0.3 74 1.6 W 35 43 19 23 990.6 - 0.4
27/12:30pm 3.8 -4.5 -0.2 75 1.5 W 33 43 18 23 990.8 - 0.4
27/12:00pm 4.0 -5.0 0.3 77 1.4 W 37 46 20 25 990.8 991.1 0.4
27/11:30am 3.4 -5.1 0.8 83 1.0 W 35 59 19 32 990.9 - 0.4
27/11:04am 3.2 -3.9 1.1 86 0.8 W 28 56 15 30 991.1 - 0.4
27/11:00am 3.4 -3.0 1.0 84 0.9 W 24 41 13 22 991.3 - 0.4
27/10:38am 3.6 -3.5 1.5 86 0.8 W 28 56 15 30 991.2 - 0.4
27/10:30am 3.6 -2.3 1.8 88 0.7 W 22 37 12 20 991.2 - 0.2
27/10:00am 4.3 -3.6 2.5 88 0.7 W 33 43 18 23 990.9 - 0.0
27/09:41am 5.0 -2.6 2.9 86 0.9 W 32 35 17 19 990.8 - 0.0
27/09:30am 4.5 -4.7 1.2 79 1.3 WSW 39 48 21 26 991.1 - 0.0
27/09:29am 4.6 -4.7 0.9 77 1.4 WSW 39 48 21 26 991.1 - 0.0
27/09:00am 5.1 -1.7 3.1 87 0.8 W 28 35 15 19 991.1 991.4 3.6
27/08:30am 4.8 -0.5 3.1 89 0.7 W 20 26 11 14 991.4 - 3.6
27/08:00am 4.4 -1.0 2.3 86 0.8 W 20 24 11 13 991.6 - 3.6
27/07:30am 4.0 -1.8 2.4 89 0.6 W 22 35 12 19 991.8 - 3.6
27/07:00am 4.5 -0.2 3.2 91 0.5 WSW 17 24 9 13 992.0 - 3.0
27/06:30am 5.1 -1.1 4.1 93 0.4 W 26 33 14 18 991.9 - 2.4
27/06:00am 5.6 -2.3 4.2 91 0.6 WNW 35 43 19 23 991.9 992.2 1.4
27/05:30am 6.2 -1.6 5.0 92 0.5 NW 35 44 19 24 991.9 - 0.8
27/05:00am 6.3 -1.5 4.8 90 0.7 NW 35 44 19 24 992.1 - 0.8
27/04:30am 6.2 -1.6 4.8 91 0.6 NW 35 44 19 24 992.4 - 0.8
27/04:00am 6.1 -2.9 4.7 91 0.6 NW 41 52 22 28 992.6 - 0.8
27/03:30am 6.2 -2.0 4.8 91 0.6 NW 37 46 20 25 993.0 - 0.8
27/03:00am 6.2 -2.4 4.7 90 0.7 NW 39 48 21 26 993.3 993.6 0.6
27/02:30am 6.2 -2.4 4.7 90 0.6 NW 39 52 21 28 993.7 - 0.6
27/02:00am 6.2 -2.4 4.8 91 0.6 NW 39 48 21 26 994.0 - 0.6
27/01:30am 6.1 -1.7 4.9 92 0.5 NW 35 44 19 24 994.4 - 0.6
27/01:00am 6.2 -1.0 4.8 91 0.6 NW 32 43 17 23 994.8 - 0.2
27/12:30am 6.3 -1.0 4.6 89 0.7 NW 32 41 17 22 995.0 - 0.0
27/12:00am 6.3 -1.6 4.6 89 0.7 NW 35 41 19 22 995.3 995.6 0.0
 
Date/Time
EST
Temp
°C
App
Temp
°C
Dew
Point
Rel
Hum
%
Delta-T
°C
Wind Press
QNH
hPa
Press
MSL
hPa
Rain
since 9 am
mm
Dir
 
Spd
km/h
Gust
km/h
Spd
kts
Gust
kts
26/11:30pm 6.3 -1.2 4.6 89 0.7 NW 33 43 18 23 995.6 - 0.0
26/11:00pm 6.2 -1.3 4.4 88 0.8 NW 33 43 18 23 995.9 - 0.0
26/10:30pm 6.2 -2.4 4.4 88 0.8 NW 39 46 21 25 996.2 - 0.0
26/10:00pm 6.2 -1.3 4.4 88 0.8 NW 33 43 18 23 996.6 - 0.0
26/09:30pm 6.1 -1.8 4.1 87 0.9 NW 35 43 19 23 996.9 - 0.0
26/09:00pm 6.2 -2.1 4.0 86 0.9 NW 37 44 20 24 997.2 997.5 0.0
26/08:30pm 6.3 -1.2 4.3 87 0.9 NW 33 41 18 22 997.5 - 0.0
26/08:00pm 6.2 -1.2 4.0 86 0.9 NW 32 37 17 20 997.9 - 0.0
26/07:30pm 6.1 -1.5 4.1 87 0.9 NNW 33 39 18 21 998.1 - 0.0
26/07:00pm 6.0 -2.0 4.0 87 0.8 NNW 35 41 19 22 998.3 - 0.0
26/06:30pm 6.0 -2.3 4.0 87 0.8 NNW 37 44 20 24 998.5 - 0.0
26/06:00pm 5.9 -2.1 3.9 87 0.9 NW 35 44 19 24 998.7 999.0 0.0
26/05:30pm 5.6 -2.4 3.6 87 0.8 NNW 35 43 19 23 998.9 - 0.0
26/05:00pm 5.7 -2.4 3.4 85 1.0 NW 35 46 19 25 998.9 - 0.0
26/04:30pm 5.8 -1.8 3.0 82 1.2 NW 32 43 17 23 998.8 - 0.0
26/04:00pm 5.7 -3.2 2.9 82 1.2 NW 39 50 21 27 999.0 - 0.0
26/03:30pm 6.0 -1.6 3.0 81 1.2 NW 32 43 17 23 999.1 - 0.0
26/03:00pm 5.9 -2.4 2.2 77 1.5 NW 35 44 19 24 999.2 999.5 0.0
26/02:30pm 5.8 -2.0 2.6 80 1.3 NW 33 48 18 26 999.4 - 0.0
26/02:00pm 5.9 -2.3 2.5 79 1.4 NW 35 44 19 24 999.5 - 0.0
26/01:30pm 5.9 -2.1 1.8 75 1.6 NW 33 44 18 24 999.6 - 0.0
26/01:00pm 5.9 -3.0 0.9 70 2.0 NW 37 44 20 24 999.9 - 0.0
26/12:30pm 5.8 -3.5 0.4 68 2.1 NW 39 48 21 26 1000.2 - 0.0
26/12:00pm 5.4 -3.2 0.2 69 2.0 NW 35 43 19 23 1000.5 1000.8 0.0
26/11:30am 5.5 -3.9 -0.3 66 2.2 WNW 39 46 21 25 1000.8 - 0.0
26/11:00am 5.3 -4.2 -0.5 66 2.2 NW 39 46 21 25 1001.1 - 0.0
26/10:30am 5.1 -5.1 -0.5 67 2.1 NW 43 54 23 29 1001.4 - 0.0
26/10:00am 5.0 -4.8 -0.4 68 2.0 WNW 41 50 22 27 1001.6 - 0.0
26/09:30am 4.8 -6.0 -0.2 70 1.9 WNW 46 54 25 29 1001.6 - 0.0
26/09:00am 4.7 -5.6 0.5 74 1.6 WNW 44 52 24 28 1001.8 1002.1 0.6
26/08:41am 4.3 -4.9 1.0 79 1.3 NW 39 46 21 25 1001.9 - 0.6
26/08:30am 4.1 -4.7 1.6 84 1.0 WNW 37 46 20 25 1002.0 - 0.6
26/08:00am 4.3 -4.4 2.2 86 0.8 WNW 37 44 20 24 1002.1 - 0.4
26/07:30am 4.0 -6.0 2.0 87 0.8 WNW 44 57 24 31 1002.1 - 0.2
26/07:00am 4.4 -3.9 2.3 86 0.8 NW 35 48 19 26 1002.2 - 0.2
26/06:30am 4.6 -3.3 2.3 85 0.9 NW 33 43 18 23 1002.1 - 0.2
26/06:00am 4.5 -4.5 2.4 86 0.8 NNW 39 46 21 25 1002.2 1002.5 0.2
26/05:30am 4.9 -3.1 1.7 80 1.3 NNW 33 44 18 24 1002.4 - 0.0
26/05:00am 4.7 -2.9 0.7 75 1.5 NNW 30 33 16 18 1002.6 - 0.0
26/04:30am 4.7 -2.5 0.5 74 1.6 NW 28 33 15 18 1002.9 - 0.0
26/04:00am 4.6 -3.5 -0.4 70 1.9 NW 32 39 17 21 1003.0 - 0.0
26/03:30am 4.5 -3.6 -0.3 71 1.8 NW 32 39 17 21 1003.1 - 0.0
26/03:00am 4.4 -4.3 -0.6 70 1.9 NW 35 43 19 23 1003.3 1003.6 0.0
26/02:30am 4.4 -3.7 -0.4 71 1.8 WNW 32 37 17 20 1003.4 - 0.0
26/02:00am 4.4 -3.8 -0.8 69 1.9 WNW 32 39 17 21 1003.2 - 0.0
26/01:30am 4.6 -2.7 -0.2 71 1.8 WNW 28 35 15 19 1003.3 - 0.0
26/01:00am 4.6 -3.2 -0.6 69 1.9 WNW 30 37 16 20 1003.1 - 0.0
26/12:30am 4.7 -2.9 0.5 74 1.6 WNW 30 35 16 19 1003.1 - 0.0
26/12:00am 4.4 -3.4 -0.8 69 1.9 W 30 37 16 20 1003.0 1003.3 0.0
 
Date/Time
EST
Temp
°C
App
Temp
°C
Dew
Point
Rel
Hum
%
Delta-T
°C
Wind Press
QNH
hPa
Press
MSL
hPa
Rain
since 9 am
mm
Dir
 
Spd
km/h
Gust
km/h
Spd
kts
Gust
kts
25/11:30pm 4.4 -2.9 0.0 73 1.7 WNW 28 35 15 19 1002.9 - 0.0
25/11:00pm 4.2 -3.4 0.4 76 1.4 WNW 30 33 16 18 1002.7 - 0.0
25/10:30pm 4.4 -2.1 0.0 73 1.7 W 24 33 13 18 1002.6 - 0.0
25/10:00pm 3.9 -1.6 0.6 79 1.3 WNW 19 24 10 13 1002.3 - 0.0
25/09:30pm 4.3 -2.3 -0.7 70 1.9 W 24 30 13 16 1002.1 - 0.0
25/09:00pm 4.4 -3.0 -0.4 71 1.8 W 28 35 15 19 1001.8 1002.1 0.0
25/08:30pm 4.0 -2.7 -1.0 70 1.8 W 24 32 13 17 1001.1 - 0.0
25/08:00pm 4.0 -3.6 -1.8 66 2.1 W 28 43 15 23 1000.3 - 0.0
25/07:30pm 4.2 -2.5 -0.8 70 1.8 W 24 43 13 23 999.6 - 0.0
25/07:00pm 4.2 -1.0 0.2 75 1.5 W 17 26 9 14 998.7 - 0.0
25/06:31pm 4.3 -3.7 0.1 74 1.6 W 32 54 17 29 997.8 - 0.0
25/06:30pm 4.4 -3.2 0.4 75 1.5 W 30 44 16 24 997.8 - 0.0
25/06:00pm 4.5 -4.2 -0.3 71 1.8 W 35 61 19 33 997.2 997.5 0.0
25/05:30pm 4.2 -2.7 0.4 76 1.4 W 26 50 14 27 996.2 - 0.0
25/05:00pm 4.0 -6.2 0.9 80 1.2 W 44 65 24 35 995.1 - 0.0
25/04:40pm 4.3 -6.7 1.0 79 1.3 W 48 69 26 37 994.6 - 0.0
25/04:30pm 4.0 -7.7 0.9 80 1.2 W 52 65 28 35 994.1 - 0.0
25/04:08pm 4.2 -7.5 1.1 80 1.2 W 52 78 28 42 993.3 - 0.0
25/04:00pm 4.4 -7.3 0.9 78 1.4 W 52 67 28 36 992.9 - 0.0
25/03:50pm 4.2 -7.6 0.4 76 1.4 W 52 70 28 38 992.7 - 0.0
25/03:30pm 4.5 -8.4 -0.7 69 1.9 W 57 70 31 38 991.7 - 0.0
25/03:00pm 4.5 -7.5 -1.1 67 2.1 W 52 69 28 37 990.8 991.1 0.0
25/02:30pm 4.6 -8.2 -1.2 66 2.1 W 56 69 30 37 989.8 - 0.0
25/02:00pm 4.5 -7.6 -1.5 65 2.2 W 52 63 28 34 988.8 - 0.0
25/01:30pm 4.8 -6.7 -0.2 70 1.9 W 50 61 27 33 987.6 - 0.0
25/01:00pm 4.4 -7.0 0.7 77 1.4 W 50 65 27 35 986.6 - 0.0
25/12:30pm 3.4 -8.3 1.0 84 0.9 WNW 52 67 28 36 985.6 - 0.0
25/12:00pm 2.9 -10.2 0.6 85 0.9 WNW 59 76 32 41 984.8 985.1 0.0
25/11:51am 3.7 -8.5 0.1 77 1.4 WNW 54 72 29 39 984.8 - 0.0
25/11:30am 4.4 -8.8 0.2 74 1.6 NW 59 69 32 37 984.3 - 0.0
25/11:00am 4.7 -8.4 0.7 75 1.5 NW 59 74 32 40 984.2 - 0.0
25/10:30am 4.8 -7.9 0.8 75 1.5 WNW 57 70 31 38 984.1 - 0.0
25/10:06am 4.0 -6.6 0.5 78 1.3 NW 46 56 25 30 984.3 - 0.0
25/10:00am 3.3 -6.9 0.7 83 1.0 W 44 57 24 31 984.6 - 0.0
25/09:57am 3.4 -7.2 1.0 84 0.9 W 46 57 25 31 984.7 - 0.0
25/09:52am 3.4 -7.9 1.0 84 0.9 NW 50 61 27 33 984.5 - 0.0
25/09:38am 3.7 -11.9 0.4 79 1.2 WNW 72 93 39 50 984.0 - 0.0
25/09:37am 3.9 -7.5 0.4 78 1.3 W 50 93 27 50 983.9 - 0.0
25/09:30am 3.5 -8.8 -0.7 74 1.5 W 54 74 29 40 984.1 - 0.0
25/09:00am 4.0 -8.8 0.0 75 1.5 WNW 57 80 31 43 983.7 984.0 12.2
25/08:58am 4.5 -8.2 0.5 75 1.5 WNW 57 80 31 43 983.7 - 12.2
25/08:30am 4.1 -9.0 0.4 77 1.4 WNW 59 70 32 38 983.5 - 12.2
25/08:03am 3.4 -9.0 1.3 86 0.8 WNW 56 76 30 41 983.2 - 12.2
25/08:00am 3.3 -9.3 1.3 87 0.8 WNW 57 70 31 38 983.2 - 12.2
25/07:45am 4.1 -8.5 1.5 83 1.0 WNW 57 87 31 47 982.6 - 12.2
25/07:30am 4.3 -8.3 1.3 81 1.2 WNW 57 70 31 38 982.5 - 12.2
25/07:00am 3.5 -9.4 1.7 88 0.7 WNW 59 83 32 45 982.3 - 12.2
25/06:30am 4.7 -8.1 2.7 87 0.8 NW 59 80 32 43 982.0 - 11.8
25/06:28am 5.3 -7.2 2.3 81 1.2 NW 57 80 31 43 981.7 - 11.8
25/06:00am 5.3 -6.1 2.7 83 1.1 WNW 52 63 28 34 981.9 982.2 11.8
25/05:30am 5.4 -5.9 3.3 86 0.9 WNW 52 63 28 34 981.8 - 11.6
25/05:00am 5.8 -4.5 4.6 92 0.5 WNW 48 61 26 33 981.8 - 11.6
25/04:30am 6.4 -2.7 5.7 95 0.3 WNW 43 50 23 27 981.5 - 11.6
25/04:00am 6.6 -3.4 6.0 96 0.3 NW 48 57 26 31 981.4 - 11.6
25/03:30am 6.8 -2.4 6.2 96 0.3 NW 44 50 24 27 981.5 - 11.6
25/03:00am 6.9 -1.0 6.3 96 0.3 NW 37 44 20 24 981.7 982.0 11.6
25/02:30am 6.9 -0.2 6.5 97 0.2 NW 33 41 18 22 981.9 - 11.6
25/02:00am 6.8 -0.1 6.4 97 0.2 NW 32 35 17 19 982.3 - 11.6
25/01:30am 6.8 2.2 6.4 97 0.2 NW 20 26 11 14 982.9 - 11.6
25/01:00am 6.7 2.2 6.3 97 0.2 NW 19 22 10 12 983.3 - 11.6
25/12:30am 6.6 2.9 6.2 97 0.2 NW 15 17 8 9 983.8 - 11.4
25/12:00am 6.7 3.4 6.3 97 0.2 NW 13 19 7 10 984.4 984.7 11.2
 
Date/Time
EST
Temp
°C
App
Temp
°C
Dew
Point
Rel
Hum
%
Delta-T
°C
Wind Press
QNH
hPa
Press
MSL
hPa
Rain
since 9 am
mm
Dir
 
Spd
km/h
Gust
km/h
Spd
kts
Gust
kts
24/11:30pm 6.7 2.2 6.3 97 0.2 NW 19 20 10 11 985.1 - 11.2
24/11:00pm 6.8 2.7 6.4 97 0.2 NW 17 20 9 11 985.6 - 11.0
24/10:30pm 6.9 2.5 6.5 97 0.2 NW 19 22 10 12 986.2 - 11.0
24/10:00pm 6.8 3.5 6.4 97 0.2 WNW 13 17 7 9 987.0 - 10.6
24/09:30pm 6.6 4.0 6.2 97 0.2 NNW 9 11 5 6 987.8 - 10.0
24/09:00pm 6.9 4.0 6.5 97 0.2 NW 11 13 6 7 988.5 988.8 8.8
24/08:30pm 6.9 4.0 6.5 97 0.2 WNW 11 13 6 7 989.4 - 8.2
24/08:00pm 6.8 3.9 6.4 97 0.2 NW 11 15 6 8 990.6 - 7.8
24/07:30pm 6.8 3.5 6.4 97 0.2 NW 13 15 7 8 991.5 - 7.2
24/07:00pm 6.9 3.2 6.5 97 0.2 NW 15 17 8 9 992.5 - 7.0
24/06:30pm 6.9 4.0 6.5 97 0.2 WNW 11 11 6 6 992.7 - 7.0
24/06:00pm 6.8 2.4 6.4 97 0.2 N 19 24 10 13 993.6 993.9 6.4
24/05:30pm 6.8 2.4 6.4 97 0.2 NNW 19 20 10 11 994.3 - 6.2
24/05:00pm 6.8 3.5 6.4 97 0.2 WNW 13 15 7 8 994.9 - 6.0
24/04:30pm 6.9 2.5 6.5 97 0.2 NNW 19 24 10 13 995.4 - 5.8
24/04:00pm 6.9 2.3 6.5 97 0.2 N 20 24 11 13 996.2 - 5.2

Other Formats:

Comma delimited format used in spreadsheet applications
http://www.bom.gov.au/fwo/IDT60803/IDT60803.94998.axf

JavaScript Object Notation format (JSON) in row-major order
http://www.bom.gov.au/fwo/IDT60803/IDT60803.94998.json